Time;durP1;ratioP1;P1;durP2;ratioP2;P2;SDS_P1;SDS_P2;PMS_P1;PMS_P2;Temp;Humidity;BMP_temperature;BMP_pressure;BME280_temperature;BME280_humidity;BME280_pressure;Samples;Min_cycle;Max_cycle;Signal;HPM_P1;HPM_P2
2022/01/04 00:00:55;;;;;;;7.25;1.58;;;25.90;83.00;;;;;;5052518;28;20425;-54
2022/01/04 00:03:22;;;;;;;3.53;1.70;;;25.80;83.80;;;;;;5052703;28;20116;-56
2022/01/04 00:05:50;;;;;;;3.53;1.65;;;25.90;83.20;;;;;;5052631;28;20024;-52
2022/01/04 00:08:17;;;;;;;3.30;1.35;;;25.90;83.60;;;;;;5052810;28;20033;-47
2022/01/04 00:10:44;;;;;;;5.95;1.40;;;25.90;83.00;;;;;;5052560;28;20056;-59
2022/01/04 00:13:24;;;;;;;2.95;1.30;;;25.90;83.50;;;;;;5052551;28;20021;-56
2022/01/04 00:15:55;;;;;;;5.85;1.50;;;25.90;83.70;;;;;;5052158;28;20098;-55
2022/01/04 00:18:23;;;;;;;5.57;1.63;;;25.90;83.70;;;;;;5051358;28;20467;-56
2022/01/04 00:20:53;;;;;;;8.30;1.83;;;25.90;83.80;;;;;;5052607;28;20033;-58
2022/01/04 00:23:21;;;;;;;4.57;1.50;;;25.90;83.50;;;;;;5052276;28;20028;-60
2022/01/04 00:25:49;;;;;;;4.18;1.33;;;25.90;83.20;;;;;;5059328;28;20055;-58
2022/01/04 00:28:16;;;;;;;7.72;2.22;;;25.90;83.20;;;;;;5057956;28;20375;-57
2022/01/04 00:30:44;;;;;;;3.78;1.33;;;25.90;83.70;;;;;;5057516;28;20382;-60
2022/01/04 00:33:14;;;;;;;4.90;1.17;;;25.90;83.60;;;;;;5059239;28;20033;-58
2022/01/04 00:35:41;;;;;;;3.33;1.55;;;25.90;83.50;;;;;;5058614;28;20033;-56
2022/01/04 00:38:09;;;;;;;3.00;1.25;;;25.90;83.30;;;;;;5057832;28;20017;-60
2022/01/04 00:40:36;;;;;;;7.15;2.30;;;26.00;83.30;;;;;;5059382;28;20079;-57
2022/01/04 00:43:05;;;;;;;6.82;2.03;;;26.00;83.10;;;;;;5059313;28;20448;-57
2022/01/04 00:45:36;;;;;;;2.13;0.90;;;26.00;83.00;;;;;;5058758;28;20032;-57
2022/01/04 00:50:37;;;;;;;6.53;1.83;;;26.00;83.30;;;;;;5058890;28;20029;-60
2022/01/04 00:53:06;;;;;;;5.43;1.63;;;26.00;82.70;;;;;;5058868;28;20032;-52
2022/01/04 00:55:34;;;;;;;3.60;1.45;;;26.10;82.90;;;;;;5075760;28;20044;-58
2022/01/04 00:58:03;;;;;;;4.40;1.63;;;26.10;82.80;;;;;;5078309;28;20051;-55
2022/01/04 01:00:30;;;;;;;3.17;1.10;;;26.00;83.00;;;;;;5078505;28;20025;-56
2022/01/04 01:02:58;;;;;;;4.57;1.42;;;26.10;82.80;;;;;;5078416;28;20020;-58
2022/01/04 01:05:26;;;;;;;1.67;1.00;;;26.00;82.90;;;;;;5078685;28;20028;-57
2022/01/04 01:07:57;;;;;;;4.25;1.77;;;26.00;83.10;;;;;;5078623;28;20027;-54
2022/01/04 01:13:03;;;;;;;4.00;1.23;;;26.10;82.30;;;;;;5078823;28;20075;-60
2022/01/04 01:15:30;;;;;;;6.13;1.88;;;26.20;82.60;;;;;;5078554;28;20421;-60
2022/01/04 01:17:58;;;;;;;4.28;1.60;;;26.20;81.80;;;;;;5078316;28;20060;-58
2022/01/04 01:20:25;;;;;;;5.03;1.70;;;26.30;81.60;;;;;;5078771;28;20050;-60
2022/01/04 01:22:53;;;;;;;4.55;1.27;;;26.30;82.00;;;;;;5078644;28;20391;-59
2022/01/04 01:25:21;;;;;;;3.38;1.52;;;26.30;81.00;;;;;;5078800;28;20025;-55
2022/01/04 01:27:49;;;;;;;4.18;1.65;;;26.30;80.90;;;;;;5077551;28;20016;-58
2022/01/04 01:30:17;;;;;;;3.10;1.30;;;26.40;81.60;;;;;;5078327;28;20044;-52
2022/01/04 01:32:44;;;;;;;5.10;1.77;;;26.30;81.50;;;;;;5078613;28;20032;-56
2022/01/04 01:35:12;;;;;;;6.05;1.98;;;26.40;81.20;;;;;;5077260;28;20033;-54
2022/01/04 01:37:40;;;;;;;5.60;1.80;;;26.30;81.70;;;;;;5075018;28;20097;-57
2022/01/04 01:40:08;;;;;;;4.75;1.60;;;26.40;82.00;;;;;;5073650;28;20139;-55
2022/01/04 01:42:39;;;;;;;4.63;1.73;;;26.40;81.90;;;;;;5075825;28;20024;-57
2022/01/04 01:45:11;;;;;;;3.67;1.48;;;26.40;82.10;;;;;;5075457;28;20036;-58
2022/01/04 01:47:41;;;;;;;4.90;1.50;;;26.40;82.20;;;;;;5075219;28;20040;-58
2022/01/04 01:50:11;;;;;;;3.55;1.23;;;26.40;82.20;;;;;;5075405;28;20039;-59
2022/01/04 01:52:40;;;;;;;4.03;1.30;;;26.50;82.00;;;;;;5075577;28;20382;-55
2022/01/04 01:55:08;;;;;;;6.97;1.58;;;26.50;81.80;;;;;;5074136;28;20390;-60
2022/01/04 01:57:36;;;;;;;3.97;1.42;;;26.50;81.50;;;;;;5075863;28;20032;-59
2022/01/04 02:00:07;;;;;;;4.75;1.52;;;26.60;81.80;;;;;;5074888;28;20039;-57
2022/01/04 02:02:35;;;;;;;2.70;1.15;;;26.60;81.60;;;;;;5075654;28;20070;-61
2022/01/04 02:05:06;;;;;;;3.13;1.60;;;26.60;81.50;;;;;;5075123;28;20399;-57
2022/01/04 02:07:34;;;;;;;4.57;1.60;;;26.60;81.50;;;;;;5074576;28;20032;-55
2022/01/04 02:10:03;;;;;;;4.15;1.85;;;26.70;81.60;;;;;;5074757;28;20058;-54
2022/01/04 02:12:36;;;;;;;3.83;1.25;;;26.60;81.70;;;;;;5074775;28;20116;-55
2022/01/04 02:15:05;;;;;;;7.72;1.60;;;26.70;81.70;;;;;;5075070;28;20029;-56
2022/01/04 02:17:33;;;;;;;6.75;1.98;;;26.80;81.30;;;;;;5074937;28;20032;-60
2022/01/04 02:20:01;;;;;;;4.35;1.20;;;26.80;80.90;;;;;;5075054;28;20087;-56
2022/01/04 02:22:29;;;;;;;2.83;1.10;;;26.90;80.80;;;;;;5074428;28;20055;-58
2022/01/04 02:24:59;;;;;;;2.63;1.20;;;26.90;80.80;;;;;;5073655;28;20471;-57
2022/01/04 02:27:27;;;;;;;9.27;1.50;;;26.90;80.70;;;;;;5075390;28;20464;-59
2022/01/04 02:29:54;;;;;;;3.22;1.23;;;26.90;80.70;;;;;;5074912;28;20439;-60
2022/01/04 02:32:22;;;;;;;1.88;1.30;;;26.80;80.80;;;;;;5074443;28;20055;-56
2022/01/04 02:34:51;;;;;;;4.00;1.40;;;26.80;81.00;;;;;;5074556;28;20115;-59
2022/01/04 02:37:27;;;;;;;3.35;0.90;;;26.70;81.30;;;;;;5074920;28;20043;-56
2022/01/04 02:39:55;;;;;;;2.95;1.30;;;26.80;81.20;;;;;;5073999;28;20074;-57
2022/01/04 02:42:23;;;;;;;4.07;1.02;;;26.80;81.20;;;;;;5074187;28;20037;-60
2022/01/04 02:44:51;;;;;;;3.40;1.27;;;26.80;81.10;;;;;;5072379;28;20023;-58
2022/01/04 02:47:22;;;;;;;2.58;1.10;;;26.80;81.40;;;;;;5073651;28;20048;-58
2022/01/04 02:49:49;;;;;;;5.28;1.75;;;26.80;81.40;;;;;;5072737;28;20411;-55
2022/01/04 02:52:16;;;;;;;3.70;1.02;;;26.90;81.40;;;;;;5073695;28;20101;-55
2022/01/04 02:54:44;;;;;;;4.72;1.83;;;26.80;81.20;;;;;;5073788;28;20053;-56
2022/01/04 02:57:11;;;;;;;3.00;1.33;;;26.90;80.90;;;;;;5074214;28;20028;-51
2022/01/04 02:59:39;;;;;;;3.20;1.63;;;26.90;81.20;;;;;;5072334;28;20347;-60
2022/01/04 03:02:06;;;;;;;3.72;1.23;;;26.90;81.00;;;;;;5073287;28;20017;-58
2022/01/04 03:04:34;;;;;;;4.40;1.10;;;27.00;81.00;;;;;;5073486;28;20498;-60
2022/01/04 03:07:02;;;;;;;4.03;1.33;;;27.00;81.90;;;;;;5073922;28;20108;-59
2022/01/04 03:09:30;;;;;;;3.90;1.20;;;27.00;80.90;;;;;;5073892;28;20082;-58
2022/01/04 03:11:57;;;;;;;3.30;1.35;;;27.10;81.60;;;;;;5072060;28;20090;-57
2022/01/04 03:14:25;;;;;;;4.07;1.20;;;27.10;80.40;;;;;;5072397;28;20051;-57
2022/01/04 03:16:52;;;;;;;2.90;1.30;;;27.10;80.40;;;;;;5073629;28;20351;-57
2022/01/04 03:19:20;;;;;;;3.85;1.42;;;27.10;80.80;;;;;;5072623;28;20370;-59
2022/01/04 03:21:47;;;;;;;3.88;1.55;;;27.20;80.50;;;;;;5073179;28;20029;-58
2022/01/04 03:24:16;;;;;;;4.45;1.60;;;27.20;80.40;;;;;;5071938;28;20044;-55
2022/01/04 03:26:44;;;;;;;4.40;1.52;;;27.20;79.90;;;;;;5073412;28;20470;-56
2022/01/04 03:29:13;;;;;;;3.53;1.52;;;27.30;80.30;;;;;;5073210;28;20030;-57
2022/01/04 03:31:42;;;;;;;5.75;1.58;;;27.30;80.10;;;;;;5073362;28;20548;-58
2022/01/04 03:34:10;;;;;;;3.13;1.10;;;27.40;79.60;;;;;;5071036;28;20078;-59
2022/01/04 03:36:42;;;;;;;4.55;1.33;;;27.40;79.50;;;;;;5073456;28;20036;-56
2022/01/04 03:39:11;;;;;;;4.93;1.20;;;27.50;79.20;;;;;;5072042;28;20028;-58
2022/01/04 03:41:41;;;;;;;5.70;1.20;;;27.50;79.30;;;;;;5071880;28;20036;-56
2022/01/04 03:44:14;;;;;;;2.80;1.38;;;27.60;79.40;;;;;;5073052;28;20398;-57
2022/01/04 03:46:41;;;;;;;5.25;1.67;;;27.60;79.00;;;;;;5072964;28;20039;-57
2022/01/04 03:49:08;;;;;;;3.72;1.63;;;27.60;79.20;;;;;;5072624;28;20024;-55
2022/01/04 03:51:36;;;;;;;4.80;1.38;;;27.60;78.40;;;;;;5072745;28;20017;-58
2022/01/04 03:54:03;;;;;;;3.25;1.25;;;27.70;78.70;;;;;;5072698;28;20052;-59
2022/01/04 03:56:31;;;;;;;4.55;1.65;;;27.60;78.90;;;;;;5072941;28;20033;-59
2022/01/04 03:58:58;;;;;;;3.55;1.08;;;27.60;79.00;;;;;;5072299;28;20027;-52
2022/01/04 04:01:26;;;;;;;3.72;1.27;;;27.50;79.60;;;;;;5073053;28;20110;-60
2022/01/04 04:03:54;;;;;;;4.13;1.40;;;27.50;79.60;;;;;;5072147;28;20031;-53
2022/01/04 04:06:21;;;;;;;2.33;1.30;;;27.50;79.40;;;;;;5072777;28;20032;-54
2022/01/04 04:08:49;;;;;;;3.58;1.20;;;27.50;79.50;;;;;;5073161;28;20024;-55
2022/01/04 04:11:16;;;;;;;4.75;1.58;;;27.40;79.30;;;;;;5073153;28;20033;-61
2022/01/04 04:13:44;;;;;;;3.20;1.45;;;27.40;79.90;;;;;;5073026;28;20021;-58
2022/01/04 04:16:11;;;;;;;5.38;1.30;;;27.30;80.00;;;;;;5072693;28;20482;-58
2022/01/04 04:18:39;;;;;;;4.85;1.52;;;27.30;80.40;;;;;;5072649;28;20016;-54
2022/01/04 04:21:06;;;;;;;3.17;1.45;;;27.30;79.40;;;;;;5072831;28;20502;-58
2022/01/04 04:23:34;;;;;;;3.63;1.42;;;27.30;80.60;;;;;;5072609;28;20099;-61
2022/01/04 04:26:01;;;;;;;4.30;1.30;;;27.20;80.50;;;;;;5072604;28;20054;-60
2022/01/04 04:28:29;;;;;;;7.07;1.85;;;27.20;80.90;;;;;;5072570;28;20025;-58
2022/01/04 04:30:56;;;;;;;2.35;1.08;;;27.20;80.20;;;;;;5072844;28;20071;-59
2022/01/04 04:33:24;;;;;;;3.40;1.35;;;27.20;81.20;;;;;;5072525;28;20032;-55
2022/01/04 04:35:51;;;;;;;4.03;1.25;;;27.10;81.50;;;;;;5072149;28;20029;-60
2022/01/04 04:38:19;;;;;;;4.65;1.55;;;27.10;81.40;;;;;;5072565;28;20017;-51
2022/01/04 04:40:46;;;;;;;3.35;1.27;;;27.10;81.40;;;;;;5072368;28;20060;-57
2022/01/04 04:43:14;;;;;;;6.35;1.50;;;27.10;81.50;;;;;;5072549;28;20051;-58
2022/01/04 04:45:41;;;;;;;10.02;2.15;;;27.10;81.50;;;;;;5072576;28;20107;-59
2022/01/04 04:48:08;;;;;;;2.63;1.25;;;27.10;81.50;;;;;;5072515;28;20059;-56
2022/01/04 04:50:36;;;;;;;3.20;1.05;;;27.10;82.10;;;;;;5072543;28;20088;-61
2022/01/04 04:53:03;;;;;;;4.93;1.88;;;27.10;81.60;;;;;;5072880;28;20059;-57
2022/01/04 04:55:31;;;;;;;4.47;1.38;;;27.10;81.80;;;;;;5072293;28;20048;-61
2022/01/04 04:57:58;;;;;;;4.63;1.80;;;27.20;80.50;;;;;;5071781;28;20031;-58
2022/01/04 05:00:26;;;;;;;4.47;1.50;;;27.20;81.50;;;;;;5072409;28;20371;-59
2022/01/04 05:02:53;;;;;;;5.68;1.45;;;27.20;81.40;;;;;;5072999;28;20034;-59
2022/01/04 05:05:21;;;;;;;4.40;1.27;;;27.10;81.40;;;;;;5072051;28;20047;-56
2022/01/04 05:07:48;;;;;;;4.68;1.30;;;27.20;81.50;;;;;;5071529;28;20031;-60
2022/01/04 05:10:15;;;;;;;4.05;1.27;;;27.10;81.10;;;;;;5073400;28;20095;-50
2022/01/04 05:12:43;;;;;;;5.45;1.30;;;27.20;81.20;;;;;;5074826;28;20498;-59
2022/01/04 05:15:11;;;;;;;4.03;1.20;;;27.10;81.80;;;;;;5075996;28;20521;-55
2022/01/04 05:17:38;;;;;;;6.32;1.27;;;27.10;81.60;;;;;;5075671;28;20443;-57
2022/01/04 05:20:06;;;;;;;4.38;1.70;;;27.10;81.90;;;;;;5075593;28;20100;-58
2022/01/04 05:22:34;;;;;;;2.88;1.17;;;27.10;81.80;;;;;;5076203;28;20025;-58
2022/01/04 05:25:01;;;;;;;4.90;1.30;;;27.10;81.90;;;;;;5075760;28;20021;-57
2022/01/04 05:27:29;;;;;;;4.75;1.98;;;27.10;81.70;;;;;;5075541;28;20114;-52
2022/01/04 05:29:56;;;;;;;5.43;1.40;;;27.10;81.50;;;;;;5075595;28;20111;-60
2022/01/04 05:32:23;;;;;;;2.00;0.77;;;27.10;81.90;;;;;;5076099;28;20103;-54
2022/01/04 05:34:51;;;;;;;3.55;1.23;;;27.20;81.90;;;;;;5075807;28;20055;-58
2022/01/04 05:37:18;;;;;;;2.85;1.17;;;27.20;81.40;;;;;;5075450;28;20038;-58
2022/01/04 05:39:46;;;;;;;4.28;1.58;;;27.20;81.60;;;;;;5075656;28;20107;-58
2022/01/04 05:42:13;;;;;;;5.15;1.25;;;27.20;81.50;;;;;;5075504;28;20025;-58
2022/01/04 05:44:40;;;;;;;3.00;1.35;;;27.20;81.70;;;;;;5074298;28;20063;-55
2022/01/04 05:47:08;;;;;;;4.40;1.42;;;27.10;81.60;;;;;;5075496;28;20048;-59
2022/01/04 05:49:37;;;;;;;2.10;0.80;;;27.20;81.80;;;;;;5074695;28;20077;-59
2022/01/04 05:52:08;;;;;;;8.23;1.70;;;27.10;81.80;;;;;;5074436;28;20518;-57
2022/01/04 05:54:39;;;;;;;3.10;1.27;;;27.20;81.30;;;;;;5074906;28;20119;-56
2022/01/04 05:57:10;;;;;;;5.15;1.20;;;27.20;81.30;;;;;;5075574;28;20032;-54
2022/01/04 05:59:37;;;;;;;3.35;1.30;;;27.20;81.70;;;;;;5074925;28;20046;-58
2022/01/04 06:02:05;;;;;;;3.28;0.93;;;27.10;81.30;;;;;;5073391;28;20025;-60
2022/01/04 06:04:32;;;;;;;2.22;1.15;;;27.10;80.90;;;;;;5074763;28;20032;-54
2022/01/04 06:07:00;;;;;;;5.35;1.50;;;27.10;81.90;;;;;;5074898;28;20024;-59
2022/01/04 06:09:40;;;;;;;2.95;1.13;;;27.00;82.10;;;;;;5074934;28;20031;-57
2022/01/04 06:14:55;;;;;;;3.92;1.73;;;27.00;82.10;;;;;;5074916;28;20027;-60
2022/01/04 06:17:29;;;;;;;3.30;1.05;;;27.00;82.00;;;;;;5075023;28;20047;-56
2022/01/04 06:19:58;;;;;;;3.67;1.27;;;27.00;82.50;;;;;;5074576;28;20020;-55
2022/01/04 06:22:29;;;;;;;3.58;1.50;;;27.00;82.40;;;;;;5074001;28;20037;-52
2022/01/04 06:24:56;;;;;;;;;;;27.00;83.10;;;;;;5075055;28;20123;-58
2022/01/04 06:27:25;;;;;;;2.80;1.00;;;26.90;82.80;;;;;;5074705;28;19948;-57
2022/01/04 06:29:53;;;;;;;2.80;1.00;;;26.90;82.70;;;;;;5074125;28;20086;-61
2022/01/04 06:32:20;;;;;;;4.70;1.80;;;27.00;81.80;;;;;;5073187;28;20576;-61
2022/01/04 06:34:47;;;;;;;3.63;1.40;;;27.00;80.60;;;;;;5074489;28;20116;-56
2022/01/04 06:37:18;;;;;;;3.30;1.15;;;27.00;81.90;;;;;;5074474;28;20029;-60
2022/01/04 06:39:46;;;;;;;3.63;1.10;;;27.00;82.30;;;;;;5074940;28;20372;-57
2022/01/04 06:42:14;;;;;;;3.38;1.20;;;27.00;81.70;;;;;;5074278;28;20021;-51
2022/01/04 06:44:43;;;;;;;2.42;0.98;;;26.90;82.50;;;;;;5074343;28;20021;-61
2022/01/04 06:47:11;;;;;;;2.05;1.00;;;27.00;82.60;;;;;;5074494;28;20029;-56
2022/01/04 06:49:42;;;;;;;3.40;1.42;;;26.90;82.60;;;;;;5074295;28;20027;-60
2022/01/04 06:52:09;;;;;;;3.60;1.20;;;26.90;82.60;;;;;;5074085;28;20021;-57
2022/01/04 06:54:37;;;;;;;5.88;1.20;;;26.90;82.90;;;;;;5074042;28;20380;-55
2022/01/04 06:57:05;;;;;;;4.18;1.17;;;26.90;82.80;;;;;;5073828;28;20045;-57
2022/01/04 06:59:32;;;;;;;4.25;1.17;;;26.90;81.90;;;;;;5073972;28;20050;-55
2022/01/04 07:02:03;;;;;;;2.72;0.98;;;26.80;82.90;;;;;;5074005;28;20028;-57
2022/01/04 07:04:30;;;;;;;2.28;0.85;;;26.90;81.50;;;;;;5074335;28;20408;-58
2022/01/04 07:06:57;;;;;;;2.30;0.80;;;26.80;82.80;;;;;;5074176;28;20020;-57
2022/01/04 07:09:25;;;;;;;3.00;0.80;;;26.80;82.10;;;;;;5073852;28;20107;-52
2022/01/04 07:11:52;;;;;;;3.45;1.30;;;26.80;82.50;;;;;;5071913;28;20024;-58
2022/01/04 07:14:20;;;;;;;4.18;1.35;;;26.80;82.50;;;;;;5073690;28;20029;-61
2022/01/04 07:16:47;;;;;;;4.65;1.42;;;26.80;82.90;;;;;;5073895;28;20044;-57
2022/01/04 07:19:15;;;;;;;4.68;1.38;;;26.80;82.70;;;;;;5073754;28;20379;-56
2022/01/04 07:21:43;;;;;;;3.50;1.38;;;26.70;83.10;;;;;;5073483;28;20050;-58
2022/01/04 07:24:10;;;;;;;3.88;1.33;;;26.70;83.10;;;;;;5072036;28;20020;-56
2022/01/04 07:26:37;;;;;;;3.35;1.27;;;26.70;83.30;;;;;;5073545;28;20024;-60
2022/01/04 07:29:05;;;;;;;2.85;0.90;;;26.60;82.60;;;;;;5073359;28;20077;-55
2022/01/04 07:31:33;;;;;;;2.80;0.90;;;26.60;83.30;;;;;;5073500;28;20032;-55
2022/01/04 07:34:00;;;;;;;3.72;1.25;;;26.60;83.40;;;;;;5073378;28;20048;-58
2022/01/04 07:36:30;;;;;;;3.00;1.10;;;26.60;83.40;;;;;;5073208;28;20115;-49
2022/01/04 07:38:58;;;;;;;2.30;0.90;;;26.60;83.60;;;;;;5073223;28;20021;-57
2022/01/04 07:41:26;;;;;;;4.22;1.45;;;26.50;83.50;;;;;;5073324;28;20020;-57
2022/01/04 07:43:54;;;;;;;3.00;1.02;;;26.50;83.90;;;;;;5073332;28;20070;-59
2022/01/04 07:46:23;;;;;;;4.28;1.10;;;26.40;84.40;;;;;;5073280;28;20498;-60
2022/01/04 07:48:51;;;;;;;4.20;1.17;;;26.40;83.80;;;;;;5073358;28;20024;-57
2022/01/04 07:51:19;;;;;;;3.42;1.20;;;26.40;84.10;;;;;;5073063;28;20501;-59
2022/01/04 07:53:46;;;;;;;1.85;0.90;;;26.40;83.90;;;;;;5072663;28;20025;-58
2022/01/04 07:56:14;;;;;;;2.10;1.02;;;26.40;84.20;;;;;;5072477;28;20036;-59
2022/01/04 07:58:41;;;;;;;5.88;0.82;;;26.40;84.30;;;;;;5071700;28;20021;-56
2022/01/04 08:01:08;;;;;;;5.53;1.45;;;26.30;84.50;;;;;;5072986;28;20028;-59
2022/01/04 08:03:36;;;;;;;2.45;1.00;;;26.30;84.50;;;;;;5072984;28;20470;-60
2022/01/04 08:06:04;;;;;;;3.88;1.30;;;26.30;84.70;;;;;;5072839;28;20065;-58
2022/01/04 08:08:31;;;;;;;2.53;1.05;;;26.30;84.60;;;;;;5072906;28;20487;-58
2022/01/04 08:10:59;;;;;;;2.85;0.98;;;26.30;84.80;;;;;;5072853;28;20537;-57
2022/01/04 08:13:29;;;;;;;2.15;0.77;;;26.30;84.50;;;;;;5072889;28;20487;-60
2022/01/04 08:15:57;;;;;;;4.82;1.58;;;26.30;84.90;;;;;;5072736;28;20029;-52
2022/01/04 08:18:24;;;;;;;3.35;1.30;;;26.20;84.50;;;;;;5072936;28;20028;-50
2022/01/04 08:20:56;;;;;;;3.08;1.02;;;26.30;84.70;;;;;;5073373;28;20411;-53
2022/01/04 08:23:24;;;;;;;2.35;1.05;;;26.20;84.40;;;;;;5073109;28;20055;-57
2022/01/04 08:25:52;;;;;;;5.05;1.48;;;26.20;85.40;;;;;;5071566;28;20024;-58
2022/01/04 08:28:23;;;;;;;5.25;1.23;;;26.20;85.10;;;;;;5073101;28;20020;-59
2022/01/04 08:30:51;;;;;;;2.55;1.17;;;26.20;85.00;;;;;;5073166;28;20091;-59
2022/01/04 08:33:19;;;;;;;2.53;0.93;;;26.20;85.00;;;;;;5073233;28;20044;-60
2022/01/04 08:35:47;;;;;;;2.47;1.00;;;26.10;85.20;;;;;;5073372;28;20032;-57
2022/01/04 08:38:15;;;;;;;2.53;0.82;;;26.10;85.10;;;;;;5072698;28;20475;-57
2022/01/04 08:40:42;;;;;;;6.53;1.45;;;26.10;85.10;;;;;;5072911;28;20058;-58
2022/01/04 08:43:10;;;;;;;2.58;1.08;;;26.10;85.00;;;;;;5072872;28;20027;-57
2022/01/04 08:45:40;;;;;;;3.85;1.20;;;26.10;85.20;;;;;;5075217;28;20029;-54
2022/01/04 08:48:08;;;;;;;2.55;1.00;;;26.10;85.20;;;;;;5076548;28;20031;-54
2022/01/04 08:50:35;;;;;;;2.40;0.88;;;26.10;85.30;;;;;;5075601;28;20069;-59
2022/01/04 08:53:03;;;;;;;2.60;1.00;;;26.00;85.10;;;;;;5076898;28;20039;-60
2022/01/04 08:55:30;;;;;;;2.05;0.60;;;26.00;85.10;;;;;;5076299;28;20447;-56
2022/01/04 08:57:58;;;;;;;3.63;1.20;;;26.00;85.20;;;;;;5076313;28;20059;-58
2022/01/04 09:00:25;;;;;;;3.03;1.10;;;26.00;85.40;;;;;;5076397;28;20021;-61
2022/01/04 09:02:52;;;;;;;3.15;1.10;;;26.00;85.40;;;;;;5076316;28;20467;-59
2022/01/04 09:05:20;;;;;;;2.83;0.98;;;25.90;85.40;;;;;;5076657;28;20027;-58
2022/01/04 09:07:47;;;;;;;2.95;0.88;;;25.90;85.60;;;;;;5075145;28;20024;-57
2022/01/04 09:10:15;;;;;;;2.03;1.02;;;25.90;85.60;;;;;;5076231;28;20028;-58
2022/01/04 09:21:07;;;;;;;3.22;1.00;;;25.80;85.60;;;;;;5076343;28;20090;-55
2022/01/04 09:23:35;;;;;;;2.13;0.77;;;25.80;85.80;;;;;;5075907;28;20030;-58
2022/01/04 09:26:02;;;;;;;2.40;0.90;;;25.80;86.10;;;;;;5075825;28;20483;-55
2022/01/04 09:28:33;;;;;;;3.60;0.75;;;25.80;85.90;;;;;;5076095;28;20092;-58
2022/01/04 09:31:00;;;;;;;2.25;1.10;;;25.80;86.00;;;;;;5075872;28;20060;-59
2022/01/04 09:33:29;;;;;;;1.80;0.70;;;25.70;85.90;;;;;;5074333;28;20020;-57
2022/01/04 09:35:56;;;;;;;3.90;1.10;;;25.70;85.90;;;;;;5075664;28;20037;-54
2022/01/04 09:38:24;;;;;;;2.58;1.10;;;25.70;85.80;;;;;;5074548;28;20025;-55
2022/01/04 09:40:53;;;;;;;2.78;1.20;;;25.70;86.00;;;;;;5075838;28;20103;-59
2022/01/04 09:43:20;;;;;;;2.92;0.88;;;25.60;86.10;;;;;;5075724;28;20494;-60
2022/01/04 09:45:49;;;;;;;3.25;0.88;;;25.60;85.90;;;;;;5075411;28;20033;-59
2022/01/04 09:48:16;;;;;;;2.28;1.13;;;25.60;86.00;;;;;;5075530;28;20052;-58
2022/01/04 09:50:45;;;;;;;2.78;1.27;;;25.60;86.10;;;;;;5075785;28;20506;-59
2022/01/04 09:53:20;;;;;;;2.83;1.35;;;25.60;86.10;;;;;;5075763;28;20028;-59
2022/01/04 09:55:52;;;;;;;2.58;1.15;;;25.60;86.20;;;;;;5074975;28;20487;-58
2022/01/04 09:58:21;;;;;;;2.10;1.00;;;25.60;86.30;;;;;;5074545;28;20051;-60
2022/01/04 10:00:49;;;;;;;2.85;0.80;;;25.60;86.10;;;;;;5074303;28;20490;-57
2022/01/04 10:03:29;;;;;;;2.95;1.35;;;25.50;86.10;;;;;;5075581;28;20031;-60
2022/01/04 10:06:14;;;;;;;2.28;1.13;;;25.50;86.10;;;;;;5075371;28;20024;-60
2022/01/04 10:09:04;;;;;;;2.85;0.88;;;25.50;86.10;;;;;;5075556;28;20024;-59
2022/01/04 10:11:39;;;;;;;2.00;1.00;;;25.50;86.10;;;;;;5075179;28;20040;-57
2022/01/04 10:14:35;;;;;;;2.58;1.20;;;25.50;86.10;;;;;;5074931;28;20074;-55
2022/01/04 10:17:06;;;;;;;2.55;0.90;;;25.50;86.30;;;;;;5075123;28;20118;-56
2022/01/04 10:19:36;;;;;;;1.63;0.88;;;25.50;86.10;;;;;;5075139;28;20016;-53
2022/01/04 10:22:19;;;;;;;1.73;0.80;;;25.50;86.30;;;;;;5075122;28;20031;-58
2022/01/04 10:24:49;;;;;;;1.83;0.85;;;25.50;86.20;;;;;;5074760;28;20373;-62
2022/01/04 10:27:26;;;;;;;2.05;0.70;;;25.50;86.30;;;;;;5074947;28;20052;-59
2022/01/04 10:30:10;;;;;;;3.70;0.95;;;25.40;86.30;;;;;;5074651;28;20035;-56
2022/01/04 10:33:13;;;;;;;2.15;0.90;;;25.50;86.20;;;;;;5074997;28;20044;-59
2022/01/04 10:35:53;;;;;;;3.28;0.90;;;25.50;86.50;;;;;;5072425;28;20040;-58
2022/01/04 10:38:26;;;;;;;3.47;0.90;;;25.40;86.50;;;;;;5073977;28;20450;-57
2022/01/04 10:41:25;;;;;;;2.03;0.88;;;25.40;86.50;;;;;;5075132;28;20146;-59
2022/01/04 10:44:12;;;;;;;2.13;1.05;;;25.40;86.50;;;;;;5073198;28;20032;-52
2022/01/04 10:46:45;;;;;;;1.90;0.73;;;25.40;86.50;;;;;;5073288;28;20097;-59
2022/01/04 10:49:18;;;;;;;1.38;0.80;;;25.40;86.60;;;;;;5074450;28;20085;-56
2022/01/04 10:52:03;;;;;;;2.30;0.80;;;25.30;86.50;;;;;;5074730;28;20017;-58
2022/01/04 10:54:30;;;;;;;3.70;1.13;;;25.40;86.70;;;;;;5074169;28;20052;-54
2022/01/04 10:57:10;;;;;;;2.92;1.33;;;25.30;86.60;;;;;;5074483;28;20056;-57
2022/01/04 10:59:37;;;;;;;2.15;0.90;;;25.30;86.60;;;;;;5074410;28;20467;-62
2022/01/04 11:02:05;;;;;;;1.58;0.82;;;25.30;86.70;;;;;;5074441;28;20021;-58
2022/01/04 11:04:33;;;;;;;1.35;0.47;;;25.30;86.70;;;;;;5074306;28;20455;-56
2022/01/04 11:07:03;;;;;;;2.05;0.85;;;25.30;86.60;;;;;;5072871;28;20071;-53
2022/01/04 11:09:32;;;;;;;3.67;1.10;;;25.30;86.80;;;;;;5073743;28;20016;-59
2022/01/04 11:11:59;;;;;;;2.95;1.05;;;25.30;86.70;;;;;;5073633;28;20024;-57
2022/01/04 11:14:27;;;;;;;3.65;0.90;;;25.30;86.80;;;;;;5072725;28;20082;-58
2022/01/04 11:16:55;;;;;;;4.00;1.15;;;25.30;86.80;;;;;;5073834;28;20432;-56
2022/01/04 11:19:22;;;;;;;3.47;1.25;;;25.20;86.80;;;;;;5073931;28;20075;-60
2022/01/04 11:21:51;;;;;;;2.53;0.82;;;25.20;86.70;;;;;;5072505;28;20368;-57
2022/01/04 11:24:19;;;;;;;3.03;0.93;;;25.20;86.90;;;;;;5073600;28;20048;-58
2022/01/04 11:26:49;;;;;;;1.90;0.88;;;25.30;86.90;;;;;;5072313;28;20033;-58
2022/01/04 11:29:17;;;;;;;2.13;0.80;;;25.20;86.90;;;;;;5073828;28;20020;-57
2022/01/04 11:32:01;;;;;;;2.20;1.00;;;25.20;86.90;;;;;;5073971;28;20024;-60
2022/01/04 11:34:55;;;;;;;2.25;1.02;;;25.20;86.90;;;;;;5073919;28;20422;-56
2022/01/04 11:37:24;;;;;;;2.65;1.10;;;25.20;86.90;;;;;;5073986;28;20035;-58
2022/01/04 11:39:52;;;;;;;2.17;0.88;;;25.20;86.90;;;;;;5073610;28;20032;-56
2022/01/04 11:42:34;;;;;;;2.65;1.13;;;25.20;87.00;;;;;;5073739;28;20108;-60
2022/01/04 11:45:03;;;;;;;1.40;0.95;;;25.20;87.10;;;;;;5072513;28;20100;-60
2022/01/04 11:47:37;;;;;;;1.77;0.70;;;25.20;87.10;;;;;;5073626;28;20050;-58
2022/01/04 11:50:09;;;;;;;3.35;1.05;;;25.20;87.00;;;;;;5073349;28;20059;-55
2022/01/04 11:52:38;;;;;;;;;;;25.20;87.20;;;;;;5073886;28;20024;-54
2022/01/04 11:55:34;;;;;;;2.45;0.80;;;25.20;87.20;;;;;;5072967;28;20011;-54
2022/01/04 11:58:14;;;;;;;1.95;0.70;;;25.20;87.10;;;;;;5073105;28;20068;-56
2022/01/04 12:00:45;;;;;;;3.50;0.90;;;25.20;87.20;;;;;;5073843;28;20033;-54
2022/01/04 12:03:15;;;;;;;2.05;0.77;;;25.20;87.30;;;;;;5073566;28;20024;-61
2022/01/04 12:06:02;;;;;;;2.20;0.70;;;25.20;87.30;;;;;;5073331;28;20085;-59
2022/01/04 12:08:48;;;;;;;2.15;1.10;;;25.20;87.30;;;;;;5072511;28;20098;-52
2022/01/04 12:11:29;;;;;;;3.47;1.23;;;25.10;87.20;;;;;;5073678;28;20469;-60
2022/01/04 12:14:04;;;;;;;1.33;0.60;;;25.10;87.20;;;;;;5073029;28;20025;-59
2022/01/04 12:16:34;;;;;;;2.08;1.10;;;25.10;87.20;;;;;;5073021;28;20032;-57
2022/01/04 12:19:04;;;;;;;2.90;1.10;;;25.10;87.30;;;;;;5073341;28;20025;-60
2022/01/04 12:21:34;;;;;;;3.97;1.40;;;25.10;87.30;;;;;;5073134;28;20036;-59
2022/01/04 12:24:03;;;;;;;1.27;0.60;;;25.10;87.40;;;;;;5071691;28;20043;-60
2022/01/04 12:26:33;;;;;;;1.85;0.80;;;25.10;87.40;;;;;;5071807;28;20025;-57
2022/01/04 12:29:00;;;;;;;3.00;1.02;;;25.10;87.50;;;;;;5072909;28;20025;-59
2022/01/04 12:31:30;;;;;;;2.17;0.75;;;25.10;88.10;;;;;;5072956;28;20025;-58
2022/01/04 12:34:25;;;;;;;1.88;0.70;;;25.00;87.50;;;;;;5071625;28;20379;-60
2022/01/04 12:36:52;;;;;;;2.42;1.00;;;25.10;87.60;;;;;;5072825;28;20076;-59
2022/01/04 12:39:22;;;;;;;2.10;0.73;;;25.00;87.60;;;;;;5072715;28;20407;-58
2022/01/04 12:41:51;;;;;;;3.00;1.10;;;25.00;87.50;;;;;;5073050;28;20097;-58
2022/01/04 12:44:27;;;;;;;2.40;0.80;;;25.00;87.70;;;;;;5072976;28;20028;-59
2022/01/04 12:46:56;;;;;;;1.98;0.77;;;25.00;87.70;;;;;;5073121;28;20111;-58
2022/01/04 12:49:26;;;;;;;3.55;1.35;;;25.00;87.90;;;;;;5073039;28;20060;-58
2022/01/04 12:51:57;;;;;;;1.92;0.90;;;25.00;87.90;;;;;;5072914;28;20024;-58
2022/01/04 12:54:33;;;;;;;2.60;0.98;;;25.00;87.90;;;;;;5071440;28;20105;-59
2022/01/04 12:57:06;;;;;;;2.33;0.93;;;25.00;87.90;;;;;;5072682;28;20040;-59
2022/01/04 12:59:42;;;;;;;1.90;0.88;;;25.00;88.00;;;;;;5072533;28;20142;-59
2022/01/04 13:02:33;;;;;;;3.47;1.27;;;25.00;88.10;;;;;;5072939;28;20537;-58
2022/01/04 13:05:05;;;;;;;2.80;1.10;;;25.00;87.90;;;;;;5073150;28;20035;-61
2022/01/04 13:07:39;;;;;;;3.97;1.10;;;25.00;88.00;;;;;;5072852;28;20032;-54
2022/01/04 13:10:15;;;;;;;3.47;0.95;;;25.00;88.10;;;;;;5072683;28;20016;-58
2022/01/04 13:12:48;;;;;;;1.67;0.75;;;24.90;88.00;;;;;;5072465;28;20025;-57
2022/01/04 13:15:19;;;;;;;1.75;1.00;;;24.90;88.20;;;;;;5072999;28;20486;-54
2022/01/04 13:17:55;;;;;;;3.83;1.20;;;24.90;88.10;;;;;;5072907;28;20036;-58